< < Back
Terminal Aerodrome Forecast


Current Version              Previous Versions:   1  2  3  4  5  6  7  8  9  

Terminal Aerodrome Forecast

399
FTUS42 KMLB 242300
TAFDAB
TAF
KDAB 242320Z 2500/2524 11008KT P6SM FEW040
     FM250100 VRB03KT P6SM FEW080 SCT250
     FM251400 25008KT P6SM FEW040=



Latest METAR

856
SAUS80 KWBC 250300 RRA
MTRDAB
METAR KDAB 250253Z 00000KT 10SM FEW060 23/19 A2998 RMK AO2 SLP151
T02280189 51005


USA.gov is the U.S. government's official web portal to all federal, state and local government web resources and services.